Weather observations for the past three days for
Port Lavaca - Calhoun County Airport
Imperial (Metric)
Date Time (cdt) Wind (mph) Vis. (mi.) Weather Sky Cond. Temperature (ºF) Relative Humidity Wind Chill (°F) Heat Index (°F) Pressure Precipitation (in)
Air Dwpt 6 hour altimeter (in) sea level (mb) 1 hr 3 hr 6 hr
Max. Min.
03 16:15 E 10 10.00 Fair CLR 78.1 54.5 44% 79 30.1 0.0
03 15:55 SE 10 10.00 Fair CLR 78.8 52.3 40% 79 30.11 0.0
03 15:35 SE 12 10.00 Fair CLR 78.6 51.8 39% 79 30.11 0.0
03 15:15 SE 10 10.00 Fair CLR 78.6 52.7 41% 79 30.12 0.0
03 14:55 SE 10 10.00 Fair CLR 78.8 52.5 40% 79 30.13 0.0
03 14:35 SE 10 10.00 Fair CLR 79 53.1 41% 79 30.14 0.0
03 14:15 SE 12 10.00 Fair CLR 78.6 52.7 41% 79 30.14 0.0
03 13:35 SE 12 10.00 Fair CLR 78.4 50.9 38% 79 30.16 0.0
03 13:15 SE 9 10.00 Fair CLR 78.1 50.5 38% 79 30.17 0.0
03 12:55 SE 9 10.00 A Few Clouds FEW350 77.4 49.1 78.4 54.9 37% 78 30.17 0.0
03 12:35 SE 10 9.00 Fair CLR 78.1 48.9 36% 79 30.18 0.0
03 12:15 SE 8 9.00 Fair CLR 78.1 51.1 39% 79 30.19 0.0
03 11:55 SE 6 10.00 Fair CLR 77.4 51.6 41% 78 30.2 0.0
03 11:35 Vrbl 5 10.00 Fair CLR 77.2 50.9 40% 78 30.2 0.0
03 11:15 SE 8 10.00 Fair CLR 77 51.3 41% 78 30.2 0.0
03 10:55 Vrbl 6 10.00 Fair CLR 76.5 53.6 45% 78 30.2 0.0
03 10:35 E 6 9.00 Fair CLR 75.7 54.1 47% 78 30.2 0.0
03 10:15 E 7 10.00 Fair CLR 74.8 57.2 54% 30.2 0.0
03 09:55 NE 5 9.00 Fair CLR 72.9 60.6 66% 30.19 0.0
03 09:35 NE 3 10.00 Fair CLR 71.1 60.4 69% 30.19 0.0
03 09:15 NE 5 10.00 Fair CLR 68.9 60.4 75% 30.18 0.0
03 08:55 NE 5 10.00 Fair CLR 66.2 60.4 82% 30.18 0.0
03 08:35 N 5 10.00 Fair CLR 64 60.8 89% 30.18 0.0
03 08:15 N 5 10.00 Fair CLR 61.7 59.5 93% 30.17 0.0
03 07:35 N 3 3.00 Fog/Mist CLR 57 57 100% 30.15 0.0
03 07:15 N 6 5.00 Fog/Mist CLR 54.9 54.7 99% 30.15 0.0
03 06:55 N 6 4.00 Fog/Mist CLR 54 54 60.3 53.8 100% 30.14 0.0
03 06:35 N 6 4.00 Fog/Mist CLR 54.1 54 99% 30.14 0.0
03 06:15 N 5 6.00 Fog/Mist CLR 55.4 54.3 96% 30.14 0.0
03 05:55 Calm 6.00 Fog/Mist CLR 55.2 54.5 97% 30.14 0.0
03 05:35 Calm 5.00 Fog/Mist CLR 54.9 54.7 99% 30.14 0.0
03 05:15 Calm 5.00 Fog/Mist CLR 54.7 54.7 100% 30.14 0.0
03 04:55 Calm 6.00 Fog/Mist CLR 56.1 55.2 97% 30.14 0.0
03 04:35 N 3 6.00 Fog/Mist CLR 56.5 55.2 96% 30.14 0.0
03 04:15 Calm 6.00 Fog/Mist CLR 56.1 55.6 98% 30.14 0.0
03 03:55 Calm 6.00 Fog/Mist CLR 56.8 55.8 96% 30.13 0.0
03 03:35 NW 3 6.00 Fog/Mist CLR 56.3 55.6 97% 30.14 0.0
03 03:15 NW 5 8.00 Fair CLR 57.6 55.9 94% 30.14 0.0
03 02:55 Calm 7.00 Fair CLR 56.8 56.3 98% 30.14 0.0
03 02:35 Calm 6.00 Fog/Mist CLR 57 56.5 98% 30.14 0.0
03 02:15 Calm 7.00 Fair CLR 56.8 56.8 100% 30.15 0.0
03 01:55 Calm 5.00 Fog/Mist CLR 57.4 56.7 97% 30.14 0.0
03 01:35 Calm 8.00 Fair CLR 57.7 56.5 96% 30.14 0.0
03 01:15 NW 5 10.00 Fair CLR 59.9 55.8 86% 30.14 0.0
03 00:55 NW 3 10.00 Fair CLR 59.4 56.3 73 58.8 90% 30.14 0.0
03 00:35 Calm 9.00 Fair CLR 59.2 56.3 90% 30.14 0.0
03 00:15 NW 3 10.00 Fair CLR 61 56.1 84% 30.14 0.0
02 23:55 NW 5 10.00 Fair CLR 61.5 56.3 83% 30.13 0.0
02 23:35 N 3 10.00 Fair CLR 62.1 56.3 82% 30.12 0.0
02 23:15 NW 3 10.00 Fair CLR 61.7 57 85% 30.12 0.0
02 22:55 NW 5 10.00 Fair CLR 62.8 56.8 81% 30.12 0.0
02 22:35 NW 5 10.00 Fair CLR 64.2 55.9 75% 30.12 0.0
02 22:15 NW 5 9.00 Fair CLR 63.5 56.3 78% 30.11 0.0
02 21:55 N 5 9.00 Fair CLR 65.1 55.9 72% 30.1 0.0
02 21:35 N 5 8.00 Fair CLR 66.4 55.4 68% 30.1 0.0
02 21:15 N 5 7.00 Fair CLR 65.3 56.3 73% 30.09 0.0
02 20:55 N 7 8.00 Fair CLR 65.5 57 74% 30.09 0.0
02 20:35 N 6 5.00 Fair with Haze CLR 65.1 57.9 78% 30.09 0.0
02 20:15 N 7 2.50 Fair with Haze CLR 66 56.7 72% 30.09 0.0
02 19:55 NE 7 2.50 Fair with Haze CLR 69.1 55 61% 30.09 0.0
02 19:35 NE 7 3.00 Fair with Haze CLR 70.7 54.3 56% 30.09 0.0
02 19:15 NE 9 4.00 Fair with Haze CLR 72.3 53.4 52% 30.08 0.0
02 18:55 NE 10 4.00 Fair with Haze CLR 73.4 53.2 76.1 71.4 49% 30.07 0.0
02 18:35 NE 10 5.00 Fair with Haze CLR 74.1 52.9 48% 30.07 0.0
02 18:15 NE 9 4.00 Fair with Haze CLR 74.5 53.4 48% 30.07 0.0
02 17:55 N 10 5.00 Fair with Haze CLR 75 52.7 46% 78 30.06 0.0
02 17:35 N 12 5.00 Fair with Haze CLR 75.2 52.5 45% 78 30.06 0.0
02 17:15 NE 13 G 22 8.00 Fair CLR 75 54.3 49% 78 30.06 0.0
02 16:55 NE 15 10.00 Fair CLR 75.4 53.6 47% 78 30.06 0.0
02 16:35 NE 14 10.00 Fair CLR 75.2 54.3 48% 78 30.06 0.0
02 16:15 NE 13 G 21 10.00 Fair CLR 75.7 54.3 47% 78 30.07 0.0
02 15:55 NE 14 G 23 9.00 Fair CLR 75.2 53.6 47% 78 30.08 0.0
02 15:35 NE 14 G 23 10.00 Fair CLR 75.4 54 47% 78 30.08 0.0
02 15:15 NE 12 10.00 Fair CLR 76.1 55.6 49% 78 30.08 0.0
02 14:55 N 13 G 21 10.00 Fair CLR 75 55.2 50% 78 30.09 0.0
02 14:35 N 21 G 25 10.00 A Few Clouds and Breezy FEW370 73.9 54.7 51% 30.09 0.0
02 14:15 NE 16 10.00 A Few Clouds FEW370 74.1 54.9 51% 30.09 0.0
02 13:55 NE 16 10.00 Fair CLR 73 54.1 52% 30.09 0.0
02 13:35 NE 18 G 25 10.00 Fair CLR 73 54.7 53% 30.1 0.0
02 13:15 N 18 G 24 10.00 A Few Clouds FEW310 72 54.7 55% 30.11 0.0
02 12:55 NE 16 G 24 10.00 Fair CLR 71.1 55 71.2 56.5 57% 30.11 0.0
02 12:35 N 20 G 25 9.00 A Few Clouds FEW160 71.1 55.2 57% 30.12 0.0
02 12:15 NE 20 G 24 9.00 Mostly Cloudy BKN150 BKN170 69.4 54.7 60% 30.12 0.0
02 11:55 N 21 G 25 10.00 Mostly Cloudy and Breezy BKN160 68 54.5 62% 30.12 0.0
02 11:35 N 14 G 23 10.00 Partly Cloudy SCT170 68.4 55.8 64% 30.13 0.0
02 11:15 N 16 10.00 Fair CLR 67.6 55.8 66% 30.13 0.0
02 10:55 N 14 10.00 A Few Clouds FEW190 66.6 56.3 70% 30.13 0.0
02 10:35 NE 16 10.00 Partly Cloudy SCT190 64.9 55.2 71% 30.12 0.0
02 10:15 N 14 10.00 Partly Cloudy SCT180 63.7 55.4 75% 30.11 0.0
02 09:55 NE 17 10.00 Fair CLR 62.6 54.7 75% 30.11 0.0
02 09:35 NE 15 10.00 Fair CLR 62.4 55 77% 30.11 0.0
02 09:15 N 16 10.00 Fair CLR 61 55.2 81% 30.11 0.0
02 08:55 N 14 10.00 Partly Cloudy SCT190 58.8 54.9 87% 30.1 0.0
02 08:35 N 12 10.00 Partly Cloudy FEW012 SCT190 58.8 55.8 90% 30.09 0.0
02 08:15 N 13 10.00 Partly Cloudy SCT011 SCT190 57.4 55.6 94% 30.08 0.0
02 07:55 N 14 10.00 Partly Cloudy SCT011 57 55.9 96% 30.07 0.0
02 07:35 N 13 9.00 Mostly Cloudy BKN013 56.5 56.3 99% 30.06 0.0
02 07:15 N 9 9.00 Overcast OVC015 56.5 56.1 99% 30.06 0.0
02 06:55 N 12 10.00 Overcast SCT010 OVC017 56.7 56.5 58.5 56.7 99% 30.05 0.0
02 06:35 N 10 10.00 Overcast BKN010 OVC014 57 56.7 99% 30.04 0.0
02 06:15 N 9 10.00 Overcast OVC013 57.2 56.7 98% 30.04 0.0
02 05:55 N 8 10.00 Overcast OVC012 57.2 56.7 98% 30.03 0.0
02 05:35 N 9 10.00 Overcast OVC013 57 56.7 99% 30.03 0.0
02 05:15 N 8 10.00 Overcast OVC012 57 56.1 97% 30.01 0.0
02 04:55 N 12 10.00 Overcast OVC010 57 56.1 97% 30 0.0
02 04:35 N 10 10.00 Overcast OVC010 57 56.1 97% 30 0.0
02 04:15 N 14 10.00 Overcast OVC010 57 55.9 96% 30.01 0.0
02 03:55 N 16 10.00 Overcast OVC010 57 55.9 96% 30 0.0
02 03:35 N 10 10.00 Overcast OVC010 57.2 56.3 97% 29.99 0.0
02 03:15 N 14 10.00 Overcast OVC009 57.4 56.7 97% 29.98 0.0
02 02:55 N 16 10.00 Overcast OVC010 57.4 56.3 96% 29.98 0.0
02 02:35 N 17 10.00 Overcast OVC010 57.6 56.5 96% 29.97 0.0
02 02:15 N 17 10.00 Overcast OVC011 57.7 56.7 96% 29.97 0.0
02 01:55 N 16 10.00 Overcast OVC011 57.9 56.7 96% 29.98 0.0
02 01:35 N 14 10.00 Overcast OVC012 58.5 57.2 96% 29.98 0.0
02 01:15 N 12 10.00 Overcast OVC012 58.5 57.4 96% 29.98 0.0
02 00:55 N 16 G 23 10.00 Overcast OVC013 58.5 57 63 58.3 95% 29.97 0.0
02 00:35 N 16 G 24 10.00 Overcast OVC013 58.5 57 95% 29.97 0.0
02 00:15 N 18 10.00 Overcast OVC012 58.5 57 95% 29.96 0.0
01 23:55 N 15 G 25 10.00 Overcast BKN012 OVC017 58.6 57.6 96% 29.95 0.0
01 23:35 N 20 10.00 Overcast OVC011 58.8 57.7 96% 29.95 0.0
01 23:15 N 20 G 30 10.00 Overcast OVC011 59.5 58.6 97% 29.94 0.0
01 22:55 N 17 G 24 10.00 Overcast OVC011 60.6 60.1 98% 29.93 0.0
01 22:35 N 17 G 24 10.00 Overcast OVC011 61 60.3 98% 29.93 0.0
01 22:15 N 20 G 24 10.00 Overcast OVC010 61.2 60.8 99% 29.92 0.0
01 21:55 N 16 10.00 Overcast OVC010 61.2 61.2 100% 29.91 0.0
01 21:35 N 13 10.00 Overcast OVC010 61.3 61.3 100% 29.89 0.0
01 21:15 N 17 10.00 Overcast BKN010 OVC014 61.3 61.3 100% 29.89 0.0
01 20:55 N 15 10.00 Overcast BKN009 OVC013 61.3 61.3 100% 29.87 0.0
01 20:35 N 16 G 24 10.00 Overcast BKN010 OVC065 61.5 61.5 100% 29.86 0.0
01 20:15 N 18 G 25 8.00 Light Rain SCT010 OVC065 61.9 61.9 100% 29.85 0.0
01 19:55 N 20 10.00 Overcast BKN012 OVC065 62.1 62.1 100% 29.83 0.0
01 19:35 N 21 G 30 6.00 Fog/Mist and Breezy BKN009 BKN013 OVC060 62.2 62.2 100% 29.83 0.0
01 19:15 N 22 6.00 Light Rain Fog/Mist Thunderstorm in Vicinity and Breezy BKN009 OVC060 62.8 62.8 100% 29.82 0.0
01 18:55 N 18 G 26 7.00 Overcast OVC009 63.1 63.1 67.3 63.1 100% 29.83 0.0 0.44 1.73
01 18:35 N 20 G 28 4.00 Fog/Mist Thunderstorm in Vicinity BKN009 BKN046 OVC120 63.9 63.9 100% 29.82 0.0 0.44
01 18:15 N 18 G 30 1.00 Thunderstorm Light Rain Fog/Mist SCT008 OVC040 64.4 64.4 100% 29.8 0.0 0.43
01 17:55 N 21 G 28 6.00 Light Rain Fog/Mist Thunderstorm in Vicinity and Breezy OVC007 64.8 64.8 100% 29.75 0.0 0.19
01 17:35 NE 16 G 29 1.00 Thunderstorm Rain Fog/Mist OVC007 64.9 64.9 100% 29.72 0.0 0.18
01 17:15 NE 22 G 26 6.00 Light Rain Fog/Mist Thunderstorm in Vicinity and Breezy OVC008 65.1 65.1 100% 29.73 0.0 0.01
01 16:55 NE 20 9.00 Overcast BKN007 OVC014 65.7 65.7 100% 29.75 0.0 0.01
01 16:35 NE 17 G 24 7.00 Light Rain OVC013 66 66 100% 29.75 0.0 0.01
01 16:15 NE 20 10.00 Thunderstorm in Vicinity SCT009 OVC015 65.8 65.8 100% 29.77 0.0
01 15:55 NE 16 G 25 7.00 Thunderstorm in Vicinity BKN008 OVC017 66 66 100% 29.77 0.0 0.06 1.09
01 15:35 N 18 5.00 Light Rain Fog/Mist Thunderstorm in Vicinity BKN007 BKN012 OVC020 65.7 65.7 100% 29.76 0.0 0.05
01 15:15 NE 17 7.00 Light Rain Thunderstorm in Vicinity FEW008 SCT012 SCT025 BKN033 BKN042 OVC055 65.8 65.8 100% 29.76 0.0 0.02
01 14:55 Calm 1.50 Thunderstorm Rain Fog/Mist FEW007 SCT017 OVC046 65.1 65.1 100% 29.74 0.0 1.03
01 14:35 N 14 0.75 Thunderstorm Heavy Rain Fog/Mist SCT009 OVC021 64.9 64.9 100% 29.76 0.0 0.94
01 14:15 E 16 G 26 9.00 Thunderstorm in Vicinity OVC009 66.6 66 98% 29.65 0.0
01 13:55 NE 20 G 30 9.00 Overcast OVC008 66.6 66 98% 29.7 0.0
01 13:35 NE 21 G 26 9.00 Overcast and Breezy OVC008 66 66 100% 29.72 0.0
01 13:15 N 15 G 26 10.00 Overcast OVC009 66.4 66.2 99% 29.76 0.0
01 12:55 NE 16 G 22 10.00 Overcast BKN008 OVC016 66.2 66.2 70.2 65.1 100% 29.77 0.0 0.01 0.01
01 12:35 NE 16 G 23 10.00 Overcast BKN008 OVC016 66 66 100% 29.76 0.0 0.01
01 12:15 NE 17 G 24 6.00 Light Rain Fog/Mist BKN008 OVC015 65.5 65.5 100% 29.77 0.0 0.01
01 11:55 NE 21 G 28 6.00 Light Rain Fog/Mist and Breezy OVC008 65.7 65.7 100% 29.79 0.0
01 11:35 NE 14 6.00 Light Rain Fog/Mist OVC008 66 66 100% 29.79 0.0
01 11:15 N 17 9.00 Light Rain OVC009 66.7 65.5 96% 29.81 0.0
01 10:55 N 12 10.00 Overcast OVC010 69.6 67.6 93% 29.82 0.0
01 10:35 NE 15 8.00 Overcast OVC009 69.6 67.8 94% 29.8 0.0
01 10:15 NE 14 9.00 Overcast OVC009 69.4 67.8 95% 29.79 0.0
01 09:35 NE 14 8.00 Overcast OVC008 68.4 67.8 98% 29.78 0.0
01 09:15 NE 18 7.00 Light Rain OVC008 68.2 67.6 98% 29.8 0.0
01 08:55 NE 15 9.00 Overcast OVC008 68.7 67.6 96% 29.82 0.0
01 08:35 NE 14 9.00 Overcast OVC009 69.4 68.4 96% 29.83 0.0
01 08:15 N 17 10.00 Overcast OVC009 69.8 68.5 96% 29.83 0.0
01 07:55 NE 16 10.00 Overcast OVC009 70 68.5 95% 29.81 0.0
01 07:35 NE 14 9.00 Overcast OVC009 69.8 68.5 96% 29.81 0.0
01 07:15 NE 15 9.00 Overcast OVC009 69.8 68.7 96% 29.8 0.0
01 06:55 NE 13 10.00 Overcast OVC008 69.8 68.9 73.8 69.6 97% 29.79 0.0
01 06:35 NE 15 10.00 Overcast OVC008 69.8 69.3 98% 29.78 0.0
01 06:15 NE 13 10.00 Overcast OVC007 70 69.3 98% 29.77 0.0
01 05:55 NE 15 8.00 Light Rain OVC007 69.8 69.4 99% 29.76 0.0
01 05:35 NE 13 9.00 Overcast OVC007 70.2 69.8 99% 29.78 0.0
01 05:15 NE 14 9.00 Overcast OVC007 70.5 70.2 99% 29.78 0.0
01 04:55 NE 14 10.00 Overcast OVC008 70.9 70.3 98% 29.78 0.0
01 04:35 NE 14 10.00 Overcast OVC008 71.1 70.3 98% 29.79 0.0
01 04:15 NE 13 10.00 Overcast OVC009 71.4 70.5 97% 29.78 0.0
01 03:55 NE 9 10.00 Overcast OVC009 71.6 70.5 96% 29.78 0.0
01 03:35 N 9 10.00 Overcast OVC010 72.3 71.4 97% 29.78 0.0
01 03:15 NE 13 10.00 Overcast OVC010 73 71.8 96% 29.75 0.0
01 02:55 NE 14 9.00 Light Rain BKN010 BKN022 BKN150 73.2 72.3 97% 29.75 0.0
01 02:35 NE 16 G 23 10.00 Mostly Cloudy SCT010 SCT017 SCT026 BKN150 73.2 72 96% 29.75 0.0
01 02:15 NE 18 G 25 10.00 Mostly Cloudy BKN011 BKN017 BKN025 73.2 72 96% 29.75 0.0
01 01:55 NE 16 10.00 Overcast BKN010 OVC014 73.4 72 95% 29.79 0.0
01 01:35 NE 15 G 21 10.00 Overcast OVC012 73.4 72 95% 29.79 0.0
01 01:15 NE 14 10.00 Mostly Cloudy BKN015 BKN027 73.6 72.1 95% 29.79 0.0
01 00:55 NE 12 10.00 Mostly Cloudy FEW035 SCT042 BKN050 BKN060 73.9 72.1 81.1 73.9 94% 29.8 0.0
01 00:35 NE 13 10.00 Mostly Cloudy FEW034 BKN045 BKN050 74.1 72 93% 29.8 0.0
30 23:55 NE 15 10.00 Partly Cloudy FEW034 SCT049 74.3 72.1 93% 29.79 0.0
30 23:35 NE 14 10.00 Mostly Cloudy BKN033 74.8 72.1 91% 29.8 0.0
30 23:15 NE 13 10.00 Mostly Cloudy BKN024 BKN032 76.1 72.3 88% 76 29.81 0.0
30 22:55 NE 17 G 22 10.00 Overcast BKN021 OVC026 77.2 71.6 83% 79 29.81 0.0
30 22:35 NE 15 G 22 10.00 Overcast OVC021 77.2 72.1 85% 79 29.81 0.0
30 22:15 NE 12 10.00 Overcast BKN019 OVC040 77 73.4 89% 78 29.79 0.0
30 21:55 NE 14 10.00 Overcast BKN023 BKN029 OVC036 77.5 72 83% 79 29.78 0.0
30 21:35 NE 10 10.00 Overcast SCT013 OVC022 78.1 72.3 83% 81 29.79 0.0
30 21:15 NE 8 10.00 Mostly Cloudy BKN013 BKN018 BKN025 78.4 75.4 90% 82 29.78 0.0
30 20:55 E 8 10.00 Mostly Cloudy FEW014 BKN026 BKN033 BKN042 79.2 77 93% 84 29.77 0.0
30 20:35 E 7 10.00 Overcast SCT014 BKN026 OVC036 79.5 77 92% 85 29.76 0.0
30 20:15 E 6 10.00 Overcast SCT017 BKN027 OVC037 79.5 76.3 90% 84 29.75 0.0
30 19:55 SE 7 9.00 Overcast FEW019 OVC028 80.1 75.7 87% 85 29.74 0.0
30 19:35 SE 8 10.00 Mostly Cloudy FEW019 BKN030 80.6 76.3 87% 87 29.74 0.0
30 19:15 E 7 10.00 A Few Clouds FEW031 81 76.5 86% 88 29.74 0.0
30 18:55 SE 9 10.00 Fair CLR 81.3 77 85.6 79.9 87% 89 29.73 0.0
30 18:35 E 8 10.00 Fair CLR 82 76.8 84% 90 29.73 0.0
30 18:15 SE 9 10.00 Fair CLR 82.8 75.9 80% 91 29.72 0.0
30 17:55 E 10 10.00 Fair CLR 84.4 75.2 74% 93 29.71 0.0
30 17:35 SE 12 10.00 Fair CLR 84.9 75.2 73% 94 29.71 0.0
30 17:15 SE 10 10.00 Fair CLR 85.5 75.6 72% 95 29.71 0.0
30 16:55 SE 13 10.00 A Few Clouds FEW032 84.6 77 78% 95 29.72 0.0
30 16:35 E 6 10.00 Partly Cloudy FEW031 SCT070 SCT360 84 75 74% 92 29.72 0.0
Date Time (cdt) Wind (mph) Vis. (mi.) Weather Sky Cond. Air Dwpt Max. Min. Relative Humidity Wind Chill (°F) Heat Index (°F) altimeter (in) sea level (mb) 1 hr 3 hr 6 hr
6 hour
Temperature (ºF) Pressure Precipitation (in)